sensor_id;sensor_type;location;lat;lon;timestamp;pressure;altitude;pressure_sealevel;temperature;humidity
38786;BME280;24535;45.508;12.252;2023-04-20T00:01:02;101218.19;;;17.62;55.99
38786;BME280;24535;45.508;12.252;2023-04-20T00:03:29;101217.91;;;17.65;55.76
38786;BME280;24535;45.508;12.252;2023-04-20T00:05:57;101210.91;;;17.64;56.12
38786;BME280;24535;45.508;12.252;2023-04-20T00:08:26;101204.00;;;17.61;55.96
38786;BME280;24535;45.508;12.252;2023-04-20T00:10:51;101209.59;;;17.58;55.42
38786;BME280;24535;45.508;12.252;2023-04-20T00:13:17;101213.41;;;17.55;55.71
38786;BME280;24535;45.508;12.252;2023-04-20T00:15:42;101210.75;;;17.55;55.47
38786;BME280;24535;45.508;12.252;2023-04-20T00:18:08;101208.19;;;17.54;55.54
38786;BME280;24535;45.508;12.252;2023-04-20T00:20:33;101203.16;;;17.51;56.19
38786;BME280;24535;45.508;12.252;2023-04-20T00:22:59;101213.41;;;17.55;55.07
38786;BME280;24535;45.508;12.252;2023-04-20T00:25:25;101209.19;;;17.53;56.16
38786;BME280;24535;45.508;12.252;2023-04-20T00:27:50;101209.19;;;17.53;55.94
38786;BME280;24535;45.508;12.252;2023-04-20T00:30:16;101205.81;;;17.51;55.88
38786;BME280;24535;45.508;12.252;2023-04-20T00:32:41;101211.84;;;17.53;56.48
38786;BME280;24535;45.508;12.252;2023-04-20T00:35:07;101203.84;;;17.53;55.59
38786;BME280;24535;45.508;12.252;2023-04-20T00:37:32;101199.50;;;17.52;56.47
38786;BME280;24535;45.508;12.252;2023-04-20T00:40:00;101203.75;;;17.54;55.76
38786;BME280;24535;45.508;12.252;2023-04-20T00:42:26;101191.78;;;17.49;56.79
38786;BME280;24535;45.508;12.252;2023-04-20T00:44:57;101185.75;;;17.47;56.29
38786;BME280;24535;45.508;12.252;2023-04-20T00:47:24;101196.53;;;17.45;56.24
38786;BME280;24535;45.508;12.252;2023-04-20T00:49:51;101187.84;;;17.43;56.19
38786;BME280;24535;45.508;12.252;2023-04-20T00:52:17;101180.13;;;17.40;56.49
38786;BME280;24535;45.508;12.252;2023-04-20T00:54:43;101181.22;;;17.38;56.53
38786;BME280;24535;45.508;12.252;2023-04-20T00:57:11;101174.38;;;17.35;56.81
38786;BME280;24535;45.508;12.252;2023-04-20T00:59:38;101177.16;;;17.34;56.88
38786;BME280;24535;45.508;12.252;2023-04-20T01:02:09;101176.47;;;17.32;57.56
38786;BME280;24535;45.508;12.252;2023-04-20T01:04:35;101168.63;;;17.30;56.49
38786;BME280;24535;45.508;12.252;2023-04-20T01:07:01;101159.22;;;17.26;56.84
38786;BME280;24535;45.508;12.252;2023-04-20T01:09:37;101156.41;;;17.27;56.61
38786;BME280;24535;45.508;12.252;2023-04-20T01:12:04;101174.63;;;17.32;57.51
38786;BME280;24535;45.508;12.252;2023-04-20T01:14:29;101165.09;;;17.29;57.27
38786;BME280;24535;45.508;12.252;2023-04-20T01:16:54;101164.13;;;17.30;57.19
38786;BME280;24535;45.508;12.252;2023-04-20T01:22:05;101169.16;;;17.34;57.49
38786;BME280;24535;45.508;12.252;2023-04-20T01:24:32;101170.03;;;17.34;56.78
38786;BME280;24535;45.508;12.252;2023-04-20T01:26:57;101164.72;;;17.34;57.62
38786;BME280;24535;45.508;12.252;2023-04-20T01:29:23;101171.56;;;17.37;57.31
38786;BME280;24535;45.508;12.252;2023-04-20T01:31:49;101166.13;;;17.38;57.73
38786;BME280;24535;45.508;12.252;2023-04-20T01:34:14;101169.47;;;17.40;57.00
38786;BME280;24535;45.508;12.252;2023-04-20T01:36:42;101171.03;;;17.43;57.76
38786;BME280;24535;45.508;12.252;2023-04-20T01:39:07;101161.47;;;17.40;57.22
38786;BME280;24535;45.508;12.252;2023-04-20T01:41:34;101162.91;;;17.44;57.62
38786;BME280;24535;45.508;12.252;2023-04-20T01:44:09;101162.75;;;17.46;57.78
38786;BME280;24535;45.508;12.252;2023-04-20T01:46:38;101158.00;;;17.49;57.45
38786;BME280;24535;45.508;12.252;2023-04-20T01:49:04;101153.50;;;17.50;57.18
38786;BME280;24535;45.508;12.252;2023-04-20T01:51:31;101153.50;;;17.50;57.14
38786;BME280;24535;45.508;12.252;2023-04-20T01:53:57;101151.97;;;17.47;58.08
38786;BME280;24535;45.508;12.252;2023-04-20T01:56:29;101156.31;;;17.48;58.09
38786;BME280;24535;45.508;12.252;2023-04-20T01:58:55;101152.09;;;17.46;57.36
38786;BME280;24535;45.508;12.252;2023-04-20T02:01:20;101151.97;;;17.47;58.19
38786;BME280;24535;45.508;12.252;2023-04-20T02:03:47;101155.22;;;17.51;57.66
38786;BME280;24535;45.508;12.252;2023-04-20T02:06:16;101154.91;;;17.54;57.53
38786;BME280;24535;45.508;12.252;2023-04-20T02:08:44;101159.13;;;17.57;58.10
38786;BME280;24535;45.508;12.252;2023-04-20T02:11:10;101157.19;;;17.59;57.15
38786;BME280;24535;45.508;12.252;2023-04-20T02:13:35;101163.94;;;17.63;57.53
38786;BME280;24535;45.508;12.252;2023-04-20T02:16:01;101163.94;;;17.63;57.65
38786;BME280;24535;45.508;12.252;2023-04-20T02:18:26;101156.63;;;17.65;57.42
38786;BME280;24535;45.508;12.252;2023-04-20T02:20:54;101153.69;;;17.68;57.69
38786;BME280;24535;45.508;12.252;2023-04-20T02:23:19;101147.63;;;17.66;57.59
38786;BME280;24535;45.508;12.252;2023-04-20T02:25:45;101154.09;;;17.73;57.90
38786;BME280;24535;45.508;12.252;2023-04-20T02:28:10;101142.75;;;17.71;57.63
38786;BME280;24535;45.508;12.252;2023-04-20T02:30:36;101158.75;;;17.71;58.49
38786;BME280;24535;45.508;12.252;2023-04-20T02:33:01;101152.69;;;17.69;59.04
38786;BME280;24535;45.508;12.252;2023-04-20T02:35:27;101152.97;;;17.66;58.94
38786;BME280;24535;45.508;12.252;2023-04-20T02:37:58;101156.78;;;17.63;58.75
38786;BME280;24535;45.508;12.252;2023-04-20T02:40:24;101150.16;;;17.58;59.60
38786;BME280;24535;45.508;12.252;2023-04-20T02:42:49;101153.13;;;17.54;59.55
38786;BME280;24535;45.508;12.252;2023-04-20T02:45:15;101154.50;;;17.49;59.66
38786;BME280;24535;45.508;12.252;2023-04-20T02:47:40;101151.25;;;17.45;59.01
38786;BME280;24535;45.508;12.252;2023-04-20T02:50:06;101146.50;;;17.39;59.24
38786;BME280;24535;45.508;12.252;2023-04-20T02:52:59;101148.31;;;17.39;61.08
38786;BME280;24535;45.508;12.252;2023-04-20T02:55:25;101154.47;;;17.39;59.63
38786;BME280;24535;45.508;12.252;2023-04-20T02:57:51;101145.91;;;17.36;59.72
38786;BME280;24535;45.508;12.252;2023-04-20T03:00:17;101139.19;;;17.32;60.25
38786;BME280;24535;45.508;12.252;2023-04-20T03:02:42;101144.94;;;17.37;60.22
38786;BME280;24535;45.508;12.252;2023-04-20T03:05:08;101152.91;;;17.37;60.40
38786;BME280;24535;45.508;12.252;2023-04-20T03:07:36;101150.41;;;17.35;60.58
38786;BME280;24535;45.508;12.252;2023-04-20T03:10:01;101149.00;;;17.31;60.14
38786;BME280;24535;45.508;12.252;2023-04-20T03:12:26;101156.00;;;17.32;60.26
38786;BME280;24535;45.508;12.252;2023-04-20T03:14:52;101156.97;;;17.31;60.67
38786;BME280;24535;45.508;12.252;2023-04-20T03:17:17;101161.31;;;17.32;60.39
38786;BME280;24535;45.508;12.252;2023-04-20T03:19:43;101152.66;;;17.30;60.92
38786;BME280;24535;45.508;12.252;2023-04-20T03:22:08;101159.66;;;17.31;61.13
38786;BME280;24535;45.508;12.252;2023-04-20T03:24:34;101156.97;;;17.31;61.44
38786;BME280;24535;45.508;12.252;2023-04-20T03:26:59;101154.44;;;17.29;61.71
38786;BME280;24535;45.508;12.252;2023-04-20T03:29:25;101151.22;;;17.26;61.50
38786;BME280;24535;45.508;12.252;2023-04-20T03:31:50;101150.38;;;17.25;61.62
38786;BME280;24535;45.508;12.252;2023-04-20T03:34:15;101145.34;;;17.22;61.93
38786;BME280;24535;45.508;12.252;2023-04-20T03:36:41;101141.69;;;17.23;61.82
38786;BME280;24535;45.508;12.252;2023-04-20T03:39:06;101143.63;;;17.21;62.04
38786;BME280;24535;45.508;12.252;2023-04-20T03:41:32;101135.94;;;17.18;62.31
38786;BME280;24535;45.508;12.252;2023-04-20T03:44:10;101136.75;;;17.19;62.27
38786;BME280;24535;45.508;12.252;2023-04-20T03:46:35;101131.00;;;17.14;61.63
38786;BME280;24535;45.508;12.252;2023-04-20T03:49:04;101125.22;;;17.09;62.28
38786;BME280;24535;45.508;12.252;2023-04-20T03:51:29;101119.47;;;17.03;62.38
38786;BME280;24535;45.508;12.252;2023-04-20T03:53:55;101122.97;;;17.04;62.28
38786;BME280;24535;45.508;12.252;2023-04-20T03:56:20;101124.94;;;17.02;62.28
38786;BME280;24535;45.508;12.252;2023-04-20T03:58:46;101125.22;;;16.99;62.39
38786;BME280;24535;45.508;12.252;2023-04-20T04:01:11;101119.16;;;16.97;61.69
38786;BME280;24535;45.508;12.252;2023-04-20T04:03:43;101125.63;;;16.94;62.07
38786;BME280;24535;45.508;12.252;2023-04-20T04:06:09;101117.16;;;16.89;61.78
38786;BME280;24535;45.508;12.252;2023-04-20T04:08:35;101114.34;;;16.81;62.23
38786;BME280;24535;45.508;12.252;2023-04-20T04:11:00;101109.56;;;16.75;62.51
38786;BME280;24535;45.508;12.252;2023-04-20T04:13:26;101103.88;;;16.68;61.95
38786;BME280;24535;45.508;12.252;2023-04-20T04:15:51;101103.59;;;16.62;62.58
38786;BME280;24535;45.508;12.252;2023-04-20T04:18:16;101103.28;;;16.55;62.59
38786;BME280;24535;45.508;12.252;2023-04-20T04:20:42;101107.19;;;16.51;62.34
38786;BME280;24535;45.508;12.252;2023-04-20T04:23:07;101105.91;;;16.45;62.85
38786;BME280;24535;45.508;12.252;2023-04-20T04:25:36;101099.84;;;16.43;63.04
38786;BME280;24535;45.508;12.252;2023-04-20T04:28:01;101104.47;;;16.41;62.61
38786;BME280;24535;45.508;12.252;2023-04-20T04:30:27;101104.88;;;16.37;62.45
38786;BME280;24535;45.508;12.252;2023-04-20T04:32:53;101112.97;;;16.35;63.18
38786;BME280;24535;45.508;12.252;2023-04-20T04:35:25;101098.50;;;16.28;63.25
38786;BME280;24535;45.508;12.252;2023-04-20T04:37:51;101109.28;;;16.26;63.19
38786;BME280;24535;45.508;12.252;2023-04-20T04:40:19;101098.78;;;16.25;63.04
38786;BME280;24535;45.508;12.252;2023-04-20T04:42:45;101104.34;;;16.22;63.11
38786;BME280;24535;45.508;12.252;2023-04-20T04:45:11;101097.47;;;16.19;63.38
38786;BME280;24535;45.508;12.252;2023-04-20T04:47:37;101095.94;;;16.17;62.92
38786;BME280;24535;45.508;12.252;2023-04-20T04:50:06;101094.50;;;16.13;63.18
38786;BME280;24535;45.508;12.252;2023-04-20T04:52:32;101096.69;;;16.07;63.26
38786;BME280;24535;45.508;12.252;2023-04-20T04:54:57;101100.31;;;16.06;62.90
38786;BME280;24535;45.508;12.252;2023-04-20T04:57:23;101102.28;;;16.04;63.48
38786;BME280;24535;45.508;12.252;2023-04-20T04:59:52;101106.03;;;16.02;63.48
38786;BME280;24535;45.508;12.252;2023-04-20T05:02:17;101111.19;;;16.03;63.30
38786;BME280;24535;45.508;12.252;2023-04-20T05:04:43;101111.34;;;16.02;63.40
38786;BME280;24535;45.508;12.252;2023-04-20T05:07:08;101112.19;;;16.02;63.07
38786;BME280;24535;45.508;12.252;2023-04-20T05:09:38;101110.75;;;15.98;63.53
38786;BME280;24535;45.508;12.252;2023-04-20T05:12:04;101111.00;;;15.95;63.48
38786;BME280;24535;45.508;12.252;2023-04-20T05:14:30;101109.91;;;15.98;63.14
38786;BME280;24535;45.508;12.252;2023-04-20T05:16:57;101110.75;;;15.98;63.73
38786;BME280;24535;45.508;12.252;2023-04-20T05:19:23;101117.25;;;16.05;63.99
38786;BME280;24535;45.508;12.252;2023-04-20T05:21:48;101115.03;;;16.11;63.71
38786;BME280;24535;45.508;12.252;2023-04-20T05:24:13;101109.31;;;16.15;63.77
38786;BME280;24535;45.508;12.252;2023-04-20T05:26:39;101110.38;;;16.24;64.16
38786;BME280;24535;45.508;12.252;2023-04-20T05:29:04;101103.13;;;16.26;64.09
38786;BME280;24535;45.508;12.252;2023-04-20T05:31:30;101115.88;;;16.32;63.99
38786;BME280;24535;45.508;12.252;2023-04-20T05:33:57;101117.78;;;16.41;63.62
38786;BME280;24535;45.508;12.252;2023-04-20T05:36:23;101126.53;;;16.53;63.81
38786;BME280;24535;45.508;12.252;2023-04-20T05:38:48;101119.09;;;16.56;63.68
38786;BME280;24535;45.508;12.252;2023-04-20T05:41:14;101138.63;;;16.67;63.66
38786;BME280;24535;45.508;12.252;2023-04-20T05:43:39;101138.00;;;16.74;63.15
38786;BME280;24535;45.508;12.252;2023-04-20T05:46:05;101141.22;;;16.78;63.18
38786;BME280;24535;45.508;12.252;2023-04-20T05:48:30;101147.50;;;16.77;63.89
38786;BME280;24535;45.508;12.252;2023-04-20T05:50:56;101156.91;;;16.81;63.42
38786;BME280;24535;45.508;12.252;2023-04-20T05:53:22;101148.09;;;16.80;62.81
38786;BME280;24535;45.508;12.252;2023-04-20T05:55:48;101152.31;;;16.83;63.01
38786;BME280;24535;45.508;12.252;2023-04-20T05:58:13;101157.06;;;16.79;62.92
38786;BME280;24535;45.508;12.252;2023-04-20T06:00:39;101157.78;;;16.82;63.09
38786;BME280;24535;45.508;12.252;2023-04-20T06:03:05;101169.97;;;16.84;63.77
38786;BME280;24535;45.508;12.252;2023-04-20T06:05:30;101161.13;;;16.84;63.34
38786;BME280;24535;45.508;12.252;2023-04-20T06:07:56;101161.72;;;16.87;63.62
38786;BME280;24535;45.508;12.252;2023-04-20T06:10:21;101170.03;;;16.94;63.23
38786;BME280;24535;45.508;12.252;2023-04-20T06:12:47;101169.63;;;16.98;62.85
38786;BME280;24535;45.508;12.252;2023-04-20T06:15:12;101171.88;;;17.03;63.48
38786;BME280;24535;45.508;12.252;2023-04-20T06:17:38;101173.28;;;17.07;63.87
38786;BME280;24535;45.508;12.252;2023-04-20T06:20:13;101172.06;;;17.11;63.57
38786;BME280;24535;45.508;12.252;2023-04-20T06:22:42;101174.44;;;17.14;63.64
38786;BME280;24535;45.508;12.252;2023-04-20T06:25:11;101179.22;;;17.20;63.13
38786;BME280;24535;45.508;12.252;2023-04-20T06:27:37;101182.59;;;17.22;62.83
38786;BME280;24535;45.508;12.252;2023-04-20T06:30:09;101181.47;;;17.25;63.16
38786;BME280;24535;45.508;12.252;2023-04-20T06:32:34;101174.91;;;17.29;63.68
38786;BME280;24535;45.508;12.252;2023-04-20T06:35:00;101174.50;;;17.34;62.76
38786;BME280;24535;45.508;12.252;2023-04-20T06:37:25;101179.56;;;17.37;62.49
38786;BME280;24535;45.508;12.252;2023-04-20T06:39:53;101183.50;;;17.42;62.20
38786;BME280;24535;45.508;12.252;2023-04-20T06:42:24;101194.44;;;17.49;62.02
38786;BME280;24535;45.508;12.252;2023-04-20T06:44:53;101197.84;;;17.51;62.53
38786;BME280;24535;45.508;12.252;2023-04-20T06:47:20;101195.84;;;17.53;61.66
38786;BME280;24535;45.508;12.252;2023-04-20T06:49:52;101200.78;;;17.58;62.56
38786;BME280;24535;45.508;12.252;2023-04-20T06:52:18;101200.50;;;17.61;61.99
38786;BME280;24535;45.508;12.252;2023-04-20T06:54:43;101202.91;;;17.64;62.42
38786;BME280;24535;45.508;12.252;2023-04-20T06:57:08;101206.16;;;17.67;62.37
38786;BME280;24535;45.508;12.252;2023-04-20T06:59:34;101207.56;;;17.71;61.77
38786;BME280;24535;45.508;12.252;2023-04-20T07:02:00;101212.50;;;17.76;61.94
38786;BME280;24535;45.508;12.252;2023-04-20T07:04:25;101208.44;;;17.82;61.50
38786;BME280;24535;45.508;12.252;2023-04-20T07:06:51;101202.25;;;17.81;62.10
38786;BME280;24535;45.508;12.252;2023-04-20T07:09:16;101201.72;;;17.87;61.70
38786;BME280;24535;45.508;12.252;2023-04-20T07:11:43;101190.22;;;17.87;60.77
38786;BME280;24535;45.508;12.252;2023-04-20T07:14:08;101189.25;;;17.88;61.24
38786;BME280;24535;45.508;12.252;2023-04-20T07:16:34;101194.41;;;17.89;61.50
38786;BME280;24535;45.508;12.252;2023-04-20T07:18:59;101191.19;;;17.86;61.56
38786;BME280;24535;45.508;12.252;2023-04-20T07:21:25;101192.16;;;17.85;61.17
38786;BME280;24535;45.508;12.252;2023-04-20T07:23:51;101193.84;;;17.86;62.01
38786;BME280;24535;45.508;12.252;2023-04-20T07:26:16;101193.00;;;17.85;62.02
38786;BME280;24535;45.508;12.252;2023-04-20T07:28:42;101195.81;;;17.84;61.57
38786;BME280;24535;45.508;12.252;2023-04-20T07:31:07;101196.81;;;17.83;62.14
38786;BME280;24535;45.508;12.252;2023-04-20T07:33:33;101206.91;;;17.89;61.84
38786;BME280;24535;45.508;12.252;2023-04-20T07:36:00;101208.00;;;17.86;61.43
38786;BME280;24535;45.508;12.252;2023-04-20T07:38:25;101216.44;;;17.82;61.11
38786;BME280;24535;45.508;12.252;2023-04-20T07:40:51;101217.56;;;17.79;61.70
38786;BME280;24535;45.508;12.252;2023-04-20T07:43:16;101213.75;;;17.82;61.92
38786;BME280;24535;45.508;12.252;2023-04-20T07:45:42;101225.72;;;17.87;61.63
38786;BME280;24535;45.508;12.252;2023-04-20T07:48:10;101223.47;;;17.92;62.29
38786;BME280;24535;45.508;12.252;2023-04-20T07:50:37;101220.38;;;17.97;62.14
38786;BME280;24535;45.508;12.252;2023-04-20T07:53:11;101230.63;;;18.01;61.42
38786;BME280;24535;45.508;12.252;2023-04-20T07:55:37;101227.84;;;18.03;61.20
38786;BME280;24535;45.508;12.252;2023-04-20T07:58:02;101227.97;;;18.01;61.29
38786;BME280;24535;45.508;12.252;2023-04-20T08:03:39;101225.03;;;18.04;61.54
38786;BME280;24535;45.508;12.252;2023-04-20T08:09:27;101228.53;;;18.15;61.77
38786;BME280;24535;45.508;12.252;2023-04-20T08:12:12;101235.25;;;18.19;60.93
38786;BME280;24535;45.508;12.252;2023-04-20T08:14:39;101230.34;;;18.14;61.68
38786;BME280;24535;45.508;12.252;2023-04-20T08:17:14;101227.69;;;18.14;62.12
38786;BME280;24535;45.508;12.252;2023-04-20T08:19:39;101229.41;;;18.15;61.18
38786;BME280;24535;45.508;12.252;2023-04-20T08:22:05;101233.75;;;18.16;61.94
38786;BME280;24535;45.508;12.252;2023-04-20T08:24:30;101237.94;;;18.19;61.53
38786;BME280;24535;45.508;12.252;2023-04-20T08:27:07;101240.19;;;18.23;61.84
38786;BME280;24535;45.508;12.252;2023-04-20T08:29:35;101237.13;;;18.28;61.04
38786;BME280;24535;45.508;12.252;2023-04-20T08:32:02;101239.50;;;18.31;60.88
38786;BME280;24535;45.508;12.252;2023-04-20T08:34:30;101242.84;;;18.33;60.49
38786;BME280;24535;45.508;12.252;2023-04-20T08:36:55;101229.53;;;18.33;60.23
38786;BME280;24535;45.508;12.252;2023-04-20T08:39:21;101229.94;;;18.38;60.73
38786;BME280;24535;45.508;12.252;2023-04-20T08:41:49;101227.16;;;18.40;60.22
38786;BME280;24535;45.508;12.252;2023-04-20T08:44:18;101228.81;;;18.41;60.25
38786;BME280;24535;45.508;12.252;2023-04-20T08:46:46;101232.75;;;18.37;60.14
38786;BME280;24535;45.508;12.252;2023-04-20T08:49:12;101237.09;;;18.38;59.48
38786;BME280;24535;45.508;12.252;2023-04-20T08:51:39;101249.03;;;18.34;59.29
38786;BME280;24535;45.508;12.252;2023-04-20T08:54:05;101242.44;;;18.28;58.98
38786;BME280;24535;45.508;12.252;2023-04-20T08:56:41;101243.72;;;18.24;59.66
38786;BME280;24535;45.508;12.252;2023-04-20T08:59:08;101247.22;;;18.24;59.16
38786;BME280;24535;45.508;12.252;2023-04-20T09:02:08;101237.94;;;18.28;59.76
38786;BME280;24535;45.508;12.252;2023-04-20T09:05:02;101232.91;;;18.35;58.63
38786;BME280;24535;45.508;12.252;2023-04-20T09:07:31;101230.25;;;18.35;58.83
38786;BME280;24535;45.508;12.252;2023-04-20T09:09:58;101233.03;;;18.43;58.79
38786;BME280;24535;45.508;12.252;2023-04-20T09:12:24;101237.25;;;18.56;59.52
38786;BME280;24535;45.508;12.252;2023-04-20T09:14:50;101242.16;;;18.70;60.32
38786;BME280;24535;45.508;12.252;2023-04-20T09:17:29;101243.13;;;18.88;60.35
38786;BME280;24535;45.508;12.252;2023-04-20T09:19:55;101234.50;;;19.04;59.17
38786;BME280;24535;45.508;12.252;2023-04-20T09:24:52;101232.94;;;19.39;59.04
38786;BME280;24535;45.508;12.252;2023-04-20T09:27:18;101242.28;;;19.52;58.01
38786;BME280;24535;45.508;12.252;2023-04-20T09:29:55;101240.63;;;19.61;56.37
38786;BME280;24535;45.508;12.252;2023-04-20T09:32:30;101254.91;;;19.70;55.65
38786;BME280;24535;45.508;12.252;2023-04-20T09:34:57;101242.28;;;19.62;55.93
38786;BME280;24535;45.508;12.252;2023-04-20T09:37:25;101248.91;;;19.58;55.93
38786;BME280;24535;45.508;12.252;2023-04-20T09:39:58;101250.03;;;19.56;55.66
38786;BME280;24535;45.508;12.252;2023-04-20T09:42:26;101250.19;;;19.54;55.96
38786;BME280;24535;45.508;12.252;2023-04-20T09:44:52;101246.25;;;19.48;56.28
38786;BME280;24535;45.508;12.252;2023-04-20T09:47:18;101247.81;;;19.51;56.41
38786;BME280;24535;45.508;12.252;2023-04-20T09:49:45;101254.16;;;19.50;55.56
38786;BME280;24535;45.508;12.252;2023-04-20T09:52:17;101258.09;;;19.46;55.81
38786;BME280;24535;45.508;12.252;2023-04-20T09:54:43;101261.66;;;19.37;55.58
38786;BME280;24535;45.508;12.252;2023-04-20T09:57:10;101258.47;;;19.23;54.86
38786;BME280;24535;45.508;12.252;2023-04-20T09:59:37;101274.81;;;19.11;55.69
38786;BME280;24535;45.508;12.252;2023-04-20T10:02:10;101260.53;;;18.92;55.61
38786;BME280;24535;45.508;12.252;2023-04-20T10:04:36;101275.56;;;18.84;55.90
38786;BME280;24535;45.508;12.252;2023-04-20T10:07:02;101267.13;;;18.69;56.41
38786;BME280;24535;45.508;12.252;2023-04-20T10:09:33;101265.34;;;18.60;56.85
38786;BME280;24535;45.508;12.252;2023-04-20T10:12:08;101272.47;;;18.49;56.76
38786;BME280;24535;45.508;12.252;2023-04-20T10:14:37;101261.94;;;18.38;56.51
38786;BME280;24535;45.508;12.252;2023-04-20T10:17:07;101271.22;;;18.34;57.39
38786;BME280;24535;45.508;12.252;2023-04-20T10:19:36;101268.53;;;18.34;57.85
38786;BME280;24535;45.508;12.252;2023-04-20T10:22:10;101276.44;;;18.36;58.22
38786;BME280;24535;45.508;12.252;2023-04-20T10:24:36;101270.38;;;18.34;57.92
38786;BME280;24535;45.508;12.252;2023-04-20T10:27:03;101270.25;;;18.35;57.82
38786;BME280;24535;45.508;12.252;2023-04-20T10:29:29;101270.94;;;18.37;58.45
38786;BME280;24535;45.508;12.252;2023-04-20T10:31:55;101270.38;;;18.34;57.36
38786;BME280;24535;45.508;12.252;2023-04-20T10:34:34;101279.53;;;18.31;57.32
38786;BME280;24535;45.508;12.252;2023-04-20T10:37:18;101274.88;;;18.23;57.05
38786;BME280;24535;45.508;12.252;2023-04-20T10:39:45;101279.91;;;18.17;57.43
38786;BME280;24535;45.508;12.252;2023-04-20T10:42:11;101276.81;;;18.12;58.26
38786;BME280;24535;45.508;12.252;2023-04-20T10:44:50;101257.59;;;18.08;58.13
38786;BME280;24535;45.508;12.252;2023-04-20T10:47:24;101270.09;;;18.08;58.44
38786;BME280;24535;45.508;12.252;2023-04-20T10:49:50;101265.16;;;18.03;57.58
38786;BME280;24535;45.508;12.252;2023-04-20T10:52:15;101264.59;;;17.99;57.96
38786;BME280;24535;45.508;12.252;2023-04-20T10:54:41;101265.72;;;17.97;57.81
38786;BME280;24535;45.508;12.252;2023-04-20T10:57:06;101265.84;;;17.95;58.18
38786;BME280;24535;45.508;12.252;2023-04-20T11:02:06;101256.28;;;17.83;58.63
38786;BME280;24535;45.508;12.252;2023-04-20T11:04:35;101265.13;;;17.84;57.99
38786;BME280;24535;45.508;12.252;2023-04-20T11:07:09;101261.31;;;17.86;58.28
38786;BME280;24535;45.508;12.252;2023-04-20T11:09:37;101262.31;;;17.85;58.50
38786;BME280;24535;45.508;12.252;2023-04-20T11:12:04;101251.91;;;17.82;58.62
38786;BME280;24535;45.508;12.252;2023-04-20T11:14:35;101255.16;;;17.86;57.73
38786;BME280;24535;45.508;12.252;2023-04-20T11:17:03;101258.81;;;17.85;58.55
38786;BME280;24535;45.508;12.252;2023-04-20T11:19:33;101257.13;;;17.84;57.90
38786;BME280;24535;45.508;12.252;2023-04-20T11:22:01;101249.25;;;17.82;57.95
38786;BME280;24535;45.508;12.252;2023-04-20T11:24:28;101252.63;;;17.84;58.02
38786;BME280;24535;45.508;12.252;2023-04-20T11:26:55;101251.06;;;17.82;58.53
38786;BME280;24535;45.508;12.252;2023-04-20T11:29:33;101246.47;;;17.84;58.10
38786;BME280;24535;45.508;12.252;2023-04-20T11:32:00;101245.63;;;17.83;58.57
38786;BME280;24535;45.508;12.252;2023-04-20T11:34:26;101244.91;;;17.81;57.97
38786;BME280;24535;45.508;12.252;2023-04-20T11:36:52;101250.25;;;17.81;58.25
38786;BME280;24535;45.508;12.252;2023-04-20T11:39:26;101252.34;;;17.77;58.45
38786;BME280;24535;45.508;12.252;2023-04-20T11:41:54;101257.81;;;17.76;58.64
38786;BME280;24535;45.508;12.252;2023-04-20T11:44:22;101256.22;;;17.73;57.94
38786;BME280;24535;45.508;12.252;2023-04-20T11:46:48;101252.63;;;17.74;57.78
38786;BME280;24535;45.508;12.252;2023-04-20T11:49:18;101259.03;;;17.72;58.80
38786;BME280;24535;45.508;12.252;2023-04-20T11:51:44;101256.78;;;17.67;57.82
38786;BME280;24535;45.508;12.252;2023-04-20T11:54:10;101258.88;;;17.64;58.47
38786;BME280;24535;45.508;12.252;2023-04-20T11:56:36;101260.00;;;17.71;58.35
38786;BME280;24535;45.508;12.252;2023-04-20T11:59:02;101264.22;;;17.73;57.85
38786;BME280;24535;45.508;12.252;2023-04-20T12:01:28;101270.38;;;17.74;57.92
38786;BME280;24535;45.508;12.252;2023-04-20T12:03:54;101259.88;;;17.72;58.29
38786;BME280;24535;45.508;12.252;2023-04-20T12:06:22;101266.31;;;17.70;58.96
38786;BME280;24535;45.508;12.252;2023-04-20T12:08:47;101264.34;;;17.72;58.29
38786;BME280;24535;45.508;12.252;2023-04-20T12:11:15;101266.50;;;17.78;59.02
38786;BME280;24535;45.508;12.252;2023-04-20T12:13:43;101264.13;;;17.75;58.82
38786;BME280;24535;45.508;12.252;2023-04-20T12:16:09;101264.41;;;17.82;58.78
38786;BME280;24535;45.508;12.252;2023-04-20T12:18:34;101264.28;;;17.83;59.08
38786;BME280;24535;45.508;12.252;2023-04-20T12:20:59;101265.41;;;17.90;59.61
38786;BME280;24535;45.508;12.252;2023-04-20T12:23:26;101261.47;;;17.94;58.64
38786;BME280;24535;45.508;12.252;2023-04-20T12:25:51;101277.63;;;18.02;58.39
38786;BME280;24535;45.508;12.252;2023-04-20T12:28:17;101273.16;;;18.03;58.39
38786;BME280;24535;45.508;12.252;2023-04-20T12:30:43;101282.13;;;18.02;58.15
38786;BME280;24535;45.508;12.252;2023-04-20T12:33:08;101274.53;;;17.97;58.10
38786;BME280;24535;45.508;12.252;2023-04-20T12:35:34;101269.78;;;17.91;57.86
38786;BME280;24535;45.508;12.252;2023-04-20T12:38:00;101270.31;;;17.85;58.26
38786;BME280;24535;45.508;12.252;2023-04-20T12:40:25;101272.53;;;17.80;58.02
38786;BME280;24535;45.508;12.252;2023-04-20T12:42:51;101271.50;;;17.71;58.22
38786;BME280;24535;45.508;12.252;2023-04-20T12:45:16;101274.59;;;17.67;58.72
38786;BME280;24535;45.508;12.252;2023-04-20T12:47:42;101274.00;;;17.63;58.28
38786;BME280;24535;45.508;12.252;2023-04-20T12:50:07;101272.31;;;17.62;58.50
38786;BME280;24535;45.508;12.252;2023-04-20T12:52:33;101270.03;;;17.58;58.35
38786;BME280;24535;45.508;12.252;2023-04-20T12:54:59;101276.22;;;17.58;58.57